Terminal Aerodrome Forecast
Issued by NWS Shreveport, LA

Home | Current Version | Previous Version | Text Only | Print | Product List | Glossary On
Versions: 1 2 3 4 5 6 7 8 9 10 11 12 13 14 15 16 17 18 19
469
FTUS44 KSHV 080241 AAA
TAFTYR
TAF AMD
KTYR 080241Z 0803/0824 01007KT 4SM -DZ BR BKN005 OVC010
     FM080600 02005KT P6SM VCSH OVC010
      TEMPO 0806/0808 6SM -SHRA BR OVC008
     FM080800 01010KT 6SM -RA BR SCT004 OVC007
     FM081200 01012G18KT P6SM VCSH BKN015 OVC100
     FM081900 01012G18KT P6SM BKN050 OVC150=

USA.gov is the U.S. government's official web portal to all federal, state and local government web resources and services.